createdAt,value
2023-11-26T00:00:12.652Z,1004.39
2023-11-26T00:01:13.534Z,1004.39
2023-11-26T00:02:14.560Z,1004.38
2023-11-26T00:03:14.984Z,1004.38
2023-11-26T00:04:16.035Z,1004.39
2023-11-26T00:05:16.439Z,1004.38
2023-11-26T00:06:17.327Z,1004.39
2023-11-26T00:07:19.327Z,1004.39
2023-11-26T00:08:19.193Z,1004.40
2023-11-26T00:09:20.054Z,1004.40
2023-11-26T00:10:20.921Z,1004.41
2023-11-26T00:11:21.845Z,1004.41
2023-11-26T00:12:22.757Z,1004.43
2023-11-26T00:13:23.641Z,1004.44
2023-11-26T00:14:24.579Z,1004.45
2023-11-26T00:15:25.446Z,1004.46
2023-11-26T00:16:26.482Z,1004.48
2023-11-26T00:17:27.023Z,1004.49
2023-11-26T00:18:27.556Z,1004.48
2023-11-26T00:19:28.403Z,1004.49
2023-11-26T00:20:29.422Z,1004.47
2023-11-26T00:21:29.845Z,1004.47
2023-11-26T00:22:30.778Z,1004.45
2023-11-26T00:23:31.657Z,1004.44
2023-11-26T00:24:32.566Z,1004.43
2023-11-26T00:25:33.427Z,1004.43
2023-11-26T00:26:34.346Z,1004.43
2023-11-26T00:27:35.205Z,1004.44
2023-11-26T00:28:36.106Z,1004.44
2023-11-26T00:29:37.008Z,1004.46
2023-11-26T00:30:37.852Z,1004.48
2023-11-26T00:31:38.781Z,1004.50
2023-11-26T00:32:39.688Z,1004.51
2023-11-26T00:33:40.577Z,1004.52
2023-11-26T00:34:41.437Z,1004.52
2023-11-26T00:35:42.318Z,1004.52
2023-11-26T00:36:43.266Z,1004.51
2023-11-26T00:37:44.132Z,1004.49
2023-11-26T00:38:45.011Z,1004.48
2023-11-26T00:39:45.886Z,1004.47
2023-11-26T00:40:46.821Z,1004.48
2023-11-26T00:41:47.750Z,1004.50
2023-11-26T00:42:48.713Z,1004.51
2023-11-26T00:43:49.663Z,1004.52
2023-11-26T00:44:50.517Z,1004.53
2023-11-26T00:45:51.401Z,1004.53
2023-11-26T00:46:52.474Z,1004.53
2023-11-26T00:47:53.068Z,1004.54
2023-11-26T00:48:53.501Z,1004.54
2023-11-26T00:49:54.362Z,1004.55
2023-11-26T00:50:55.225Z,1004.56
2023-11-26T00:51:56.112Z,1004.58
2023-11-26T00:52:57.072Z,1004.59
2023-11-26T00:53:57.941Z,1004.59
2023-11-26T00:54:58.846Z,1004.59
2023-11-26T00:55:59.751Z,1004.60
2023-11-26T00:57:00.627Z,1004.61
2023-11-26T00:58:01.524Z,1004.61
2023-11-26T00:59:02.493Z,1004.60
2023-11-26T01:00:03.357Z,1004.61
2023-11-26T01:01:04.281Z,1004.61
2023-11-26T01:02:05.289Z,1004.61
2023-11-26T01:03:05.776Z,1004.62
2023-11-26T01:04:06.791Z,1004.63
2023-11-26T01:05:07.699Z,1004.64
2023-11-26T01:06:08.574Z,1004.64
2023-11-26T01:07:09.445Z,1004.64
2023-11-26T01:08:10.458Z,1004.64
2023-11-26T01:09:10.891Z,1004.64
2023-11-26T01:10:11.753Z,1004.63
2023-11-26T01:11:12.657Z,1004.63
2023-11-26T01:12:13.556Z,1004.62
2023-11-26T01:13:14.455Z,1004.62
2023-11-26T01:14:15.414Z,1004.62
2023-11-26T01:15:16.380Z,1004.61
2023-11-26T01:16:17.233Z,1004.60
2023-11-26T01:17:18.199Z,1004.61
2023-11-26T01:18:19.115Z,1004.61
2023-11-26T01:19:20.229Z,1004.62
2023-11-26T01:20:20.668Z,1004.62
2023-11-26T01:21:21.646Z,1004.63
2023-11-26T01:22:22.514Z,1004.64
2023-11-26T01:23:23.396Z,1004.66
2023-11-26T01:24:24.276Z,1004.67
2023-11-26T01:25:25.151Z,1004.69
2023-11-26T01:26:26.445Z,1004.70
2023-11-26T01:27:26.873Z,1004.70
2023-11-26T01:28:27.753Z,1004.68
2023-11-26T01:29:28.718Z,1004.68
2023-11-26T01:30:29.576Z,1004.67
2023-11-26T01:31:30.447Z,1004.67
2023-11-26T01:32:31.416Z,1004.68
2023-11-26T01:33:32.332Z,1004.69
2023-11-26T01:34:33.226Z,1004.70
2023-11-26T01:35:34.095Z,1004.70
2023-11-26T01:36:34.966Z,1004.70
2023-11-26T01:37:35.872Z,1004.68
2023-11-26T01:38:36.881Z,1004.67
2023-11-26T01:39:37.302Z,1004.67
2023-11-26T01:40:38.177Z,1004.66
2023-11-26T01:41:39.062Z,1004.66
2023-11-26T01:42:39.936Z,1004.64
2023-11-26T01:43:40.856Z,1004.63
2023-11-26T01:44:41.767Z,1004.63
2023-11-26T01:45:42.674Z,1004.62
2023-11-26T01:46:43.556Z,1004.61
2023-11-26T01:47:44.507Z,1004.61
2023-11-26T01:48:45.395Z,1004.60
2023-11-26T01:49:46.282Z,1004.60
2023-11-26T01:50:47.204Z,1004.59
2023-11-26T01:51:48.108Z,1004.57
2023-11-26T01:52:48.996Z,1004.56
2023-11-26T01:53:49.889Z,1004.54
2023-11-26T01:54:50.748Z,1004.52
2023-11-26T01:55:51.646Z,1004.51
2023-11-26T01:56:52.544Z,1004.49
2023-11-26T01:57:53.509Z,1004.48
2023-11-26T01:58:54.451Z,1004.47
2023-11-26T01:59:55.360Z,1004.47
2023-11-26T02:00:56.266Z,1004.47
2023-11-26T02:01:57.199Z,1004.47
2023-11-26T02:02:57.736Z,1004.47
2023-11-26T02:03:58.188Z,1004.49
2023-11-26T02:04:59.097Z,1004.51
2023-11-26T02:06:00.043Z,1004.53
2023-11-26T02:07:00.885Z,1004.54
2023-11-26T02:08:01.849Z,1004.56
2023-11-26T02:09:02.709Z,1004.57
2023-11-26T02:10:03.614Z,1004.59
2023-11-26T02:11:04.496Z,1004.60
2023-11-26T02:12:05.360Z,1004.60
2023-11-26T02:13:06.311Z,1004.59
2023-11-26T02:14:07.303Z,1004.59
2023-11-26T02:15:08.165Z,1004.60
2023-11-26T02:16:09.220Z,1004.61
2023-11-26T02:17:09.575Z,1004.63
2023-11-26T02:18:10.508Z,1004.62
2023-11-26T02:19:11.452Z,1004.63
2023-11-26T02:20:12.368Z,1004.63
2023-11-26T02:21:13.335Z,1004.64
2023-11-26T02:22:14.209Z,1004.64
2023-11-26T02:23:15.124Z,1004.63
2023-11-26T02:24:16.019Z,1004.62
2023-11-26T02:25:16.889Z,1004.61
2023-11-26T02:26:17.795Z,1004.62
2023-11-26T02:27:18.643Z,1004.62
2023-11-26T02:28:19.529Z,1004.61
2023-11-26T02:29:20.472Z,1004.59
2023-11-26T02:30:21.338Z,1004.59
2023-11-26T02:31:22.284Z,1004.59
2023-11-26T02:32:23.181Z,1004.59
2023-11-26T02:33:24.059Z,1004.57
2023-11-26T02:34:24.973Z,1004.55
2023-11-26T02:35:25.890Z,1004.54
2023-11-26T02:36:27.481Z,1004.55
2023-11-26T02:37:27.336Z,1004.58
2023-11-26T02:38:28.251Z,1004.58
2023-11-26T02:39:29.113Z,1004.58
2023-11-26T02:40:29.983Z,1004.57
2023-11-26T02:41:30.917Z,1004.58
2023-11-26T02:42:31.782Z,1004.60
2023-11-26T02:43:32.668Z,1004.62
2023-11-26T02:44:33.845Z,1004.64
2023-11-26T02:45:34.365Z,1004.66
2023-11-26T02:46:34.773Z,1004.67
2023-11-26T02:47:35.732Z,1004.68
2023-11-26T02:48:36.188Z,1004.66
2023-11-26T02:49:37.058Z,1004.66
2023-11-26T02:50:37.935Z,1004.66
2023-11-26T02:51:38.823Z,1004.67
2023-11-26T02:52:39.824Z,1004.65
2023-11-26T02:53:40.219Z,1004.63
2023-11-26T02:54:41.112Z,1004.61
2023-11-26T02:55:42.036Z,1004.61
2023-11-26T02:56:42.897Z,1004.61
2023-11-26T02:57:43.764Z,1004.61
2023-11-26T02:58:44.699Z,1004.61
2023-11-26T02:59:45.625Z,1004.61
2023-11-26T03:00:46.500Z,1004.59
2023-11-26T03:01:47.587Z,1004.58
2023-11-26T03:02:48.050Z,1004.57
2023-11-26T03:03:48.726Z,1004.58
2023-11-26T03:04:49.458Z,1004.58
2023-11-26T03:05:49.903Z,1004.59
2023-11-26T03:06:50.769Z,1004.59
2023-11-26T03:07:51.666Z,1004.59
2023-11-26T03:08:52.621Z,1004.58
2023-11-26T03:09:53.474Z,1004.58
2023-11-26T03:10:54.383Z,1004.58
2023-11-26T03:11:55.321Z,1004.57
2023-11-26T03:12:56.209Z,1004.57
2023-11-26T03:13:57.104Z,1004.58
2023-11-26T03:14:57.982Z,1004.57
2023-11-26T03:15:58.933Z,1004.55
2023-11-26T03:16:59.959Z,1004.53
2023-11-26T03:18:00.463Z,1004.51
2023-11-26T03:19:01.374Z,1004.51
2023-11-26T03:20:02.358Z,1004.51
2023-11-26T03:21:02.722Z,1004.52
2023-11-26T03:22:03.625Z,1004.54
2023-11-26T03:23:04.526Z,1004.56
2023-11-26T03:24:05.465Z,1004.56
2023-11-26T03:25:06.318Z,1004.56
2023-11-26T03:26:07.182Z,1004.56
2023-11-26T03:27:08.071Z,1004.58
2023-11-26T03:28:08.982Z,1004.58
2023-11-26T03:29:09.906Z,1004.56
2023-11-26T03:30:10.799Z,1004.54
2023-11-26T03:31:11.648Z,1004.56
2023-11-26T03:32:12.586Z,1004.57
2023-11-26T03:33:13.518Z,1004.57
2023-11-26T03:34:14.387Z,1004.56
2023-11-26T03:35:15.279Z,1004.57
2023-11-26T03:36:16.135Z,1004.60
2023-11-26T03:37:17.040Z,1004.61
2023-11-26T03:38:17.933Z,1004.62
2023-11-26T03:39:18.786Z,1004.61
2023-11-26T03:40:19.678Z,1004.62
2023-11-26T03:41:20.691Z,1004.63
2023-11-26T03:42:26.500Z,1004.62
2023-11-26T03:43:22.878Z,1004.62
2023-11-26T03:44:22.821Z,1004.62
2023-11-26T03:45:23.678Z,1004.62
2023-11-26T03:46:24.601Z,1004.62
2023-11-26T03:47:25.548Z,1004.62
2023-11-26T03:48:26.422Z,1004.64
2023-11-26T03:49:27.316Z,1004.66
2023-11-26T03:50:28.218Z,1004.69
2023-11-26T03:51:29.210Z,1004.71
2023-11-26T03:52:30.047Z,1004.73
2023-11-26T03:53:31.007Z,1004.73
2023-11-26T03:54:31.933Z,1004.74
2023-11-26T03:55:32.805Z,1004.77
2023-11-26T03:56:33.817Z,1004.80
2023-11-26T03:57:34.706Z,1004.79
2023-11-26T03:58:35.582Z,1004.77
2023-11-26T03:59:36.457Z,1004.76
2023-11-26T04:00:37.336Z,1004.75
2023-11-26T04:01:38.320Z,1004.75
2023-11-26T04:02:39.394Z,1004.78
2023-11-26T04:03:39.898Z,1004.78
2023-11-26T04:04:40.859Z,1004.77
2023-11-26T04:05:41.695Z,1004.77
2023-11-26T04:06:42.585Z,1004.77
2023-11-26T04:07:43.449Z,1004.76
2023-11-26T04:08:44.365Z,1004.77
2023-11-26T04:09:45.234Z,1004.77
2023-11-26T04:10:46.135Z,1004.76
2023-11-26T04:11:47.009Z,1004.78
2023-11-26T04:12:47.871Z,1004.78
2023-11-26T04:13:48.783Z,1004.77
2023-11-26T04:14:49.704Z,1004.76
2023-11-26T04:15:50.554Z,1004.74
2023-11-26T04:16:51.512Z,1004.75
2023-11-26T04:17:52.512Z,1004.75
2023-11-26T04:18:52.931Z,1004.76
2023-11-26T04:19:53.834Z,1004.77
2023-11-26T04:20:54.699Z,1004.77
2023-11-26T04:21:55.547Z,1004.78
2023-11-26T04:22:56.449Z,1004.76
2023-11-26T04:23:57.323Z,1004.75
2023-11-26T04:24:58.216Z,1004.75
2023-11-26T04:25:59.089Z,1004.76
2023-11-26T04:27:00.000Z,1004.76
2023-11-26T04:28:00.839Z,1004.76
2023-11-26T04:29:01.786Z,1004.75
2023-11-26T04:30:02.638Z,1004.75
2023-11-26T04:31:03.658Z,1004.75
2023-11-26T04:32:04.114Z,1004.76
2023-11-26T04:33:04.992Z,1004.77
2023-11-26T04:34:05.859Z,1004.75
2023-11-26T04:35:06.731Z,1004.73
2023-11-26T04:36:07.636Z,1004.74
2023-11-26T04:37:08.522Z,1004.75
2023-11-26T04:38:09.454Z,1004.75
2023-11-26T04:39:10.333Z,1004.76
2023-11-26T04:40:11.194Z,1004.77
2023-11-26T04:41:12.131Z,1004.79
2023-11-26T04:42:12.971Z,1004.80
2023-11-26T04:43:13.852Z,1004.80
2023-11-26T04:44:14.809Z,1004.81
2023-11-26T04:45:15.646Z,1004.79
2023-11-26T04:46:16.525Z,1004.78
2023-11-26T04:47:17.471Z,1004.78
2023-11-26T04:48:18.399Z,1004.79
2023-11-26T04:49:19.301Z,1004.79
2023-11-26T04:50:20.194Z,1004.79
2023-11-26T04:51:21.066Z,1004.79
2023-11-26T04:52:21.973Z,1004.79
2023-11-26T04:53:22.895Z,1004.79
2023-11-26T04:54:23.793Z,1004.80
2023-11-26T04:55:24.696Z,1004.80
2023-11-26T04:56:25.595Z,1004.79
2023-11-26T04:57:26.458Z,1004.79
2023-11-26T04:58:27.354Z,1004.79
2023-11-26T04:59:28.291Z,1004.77
2023-11-26T05:00:29.133Z,1004.77
2023-11-26T05:01:30.104Z,1004.79
2023-11-26T05:02:30.571Z,1004.79
2023-11-26T05:03:31.617Z,1004.79
2023-11-26T05:04:32.092Z,1004.78
2023-11-26T05:05:33.014Z,1004.78
2023-11-26T05:06:33.927Z,1004.79
2023-11-26T05:07:34.765Z,1004.79
2023-11-26T05:08:35.680Z,1004.79
2023-11-26T05:09:36.565Z,1004.79
2023-11-26T05:10:37.444Z,1004.79
2023-11-26T05:11:38.308Z,1004.79
2023-11-26T05:12:39.229Z,1004.80
2023-11-26T05:13:40.111Z,1004.79
2023-11-26T05:14:41.016Z,1004.79
2023-11-26T05:15:41.907Z,1004.78
2023-11-26T05:16:42.818Z,1004.76
2023-11-26T05:17:43.915Z,1004.75
2023-11-26T05:18:44.414Z,1004.75
2023-11-26T05:19:45.275Z,1004.74
2023-11-26T05:20:46.169Z,1004.75
2023-11-26T05:21:47.042Z,1004.75
2023-11-26T05:22:47.894Z,1004.75
2023-11-26T05:23:48.800Z,1004.75
2023-11-26T05:24:49.693Z,1004.74
2023-11-26T05:25:50.577Z,1004.74
2023-11-26T05:26:51.470Z,1004.75
2023-11-26T05:27:52.330Z,1004.76
2023-11-26T05:28:53.211Z,1004.76
2023-11-26T05:29:54.108Z,1004.76
2023-11-26T05:30:54.987Z,1004.75
2023-11-26T05:31:55.920Z,1004.75
2023-11-26T05:32:56.816Z,1004.76
2023-11-26T05:33:57.736Z,1004.75
2023-11-26T05:34:58.662Z,1004.76
2023-11-26T05:35:59.582Z,1004.77
2023-11-26T05:37:00.434Z,1004.77
2023-11-26T05:38:01.351Z,1004.77
2023-11-26T05:39:02.246Z,1004.78
2023-11-26T05:40:03.125Z,1004.78
2023-11-26T05:41:04.045Z,1004.78
2023-11-26T05:42:04.913Z,1004.78
2023-11-26T05:43:05.812Z,1004.79
2023-11-26T05:44:06.785Z,1004.78
2023-11-26T05:45:07.648Z,1004.77
2023-11-26T05:46:08.567Z,1004.76
2023-11-26T05:47:09.531Z,1004.76
2023-11-26T05:48:10.583Z,1004.76
2023-11-26T05:49:10.990Z,1004.75
2023-11-26T05:50:12.094Z,1004.74
2023-11-26T05:51:12.555Z,1004.73
2023-11-26T05:52:13.436Z,1004.73
2023-11-26T05:53:15.999Z,1004.71
2023-11-26T05:54:14.964Z,1004.71
2023-11-26T05:55:15.914Z,1004.71
2023-11-26T05:56:16.790Z,1004.70
2023-11-26T05:57:17.702Z,1004.69
2023-11-26T05:58:18.602Z,1004.69
2023-11-26T05:59:19.505Z,1004.67
2023-11-26T06:00:20.379Z,1004.67
2023-11-26T06:01:21.287Z,1004.66
2023-11-26T06:02:22.181Z,1004.65
2023-11-26T06:03:23.296Z,1004.65
2023-11-26T06:04:23.700Z,1004.65
2023-11-26T06:05:24.567Z,1004.66
2023-11-26T06:06:25.479Z,1004.67
2023-11-26T06:07:26.326Z,1004.67
2023-11-26T06:08:27.227Z,1004.68
2023-11-26T06:09:28.122Z,1004.68
2023-11-26T06:10:29.106Z,1004.69
2023-11-26T06:11:29.591Z,1004.70
2023-11-26T06:12:30.505Z,1004.70
2023-11-26T06:13:31.369Z,1004.69
2023-11-26T06:14:32.251Z,1004.69
2023-11-26T06:15:33.153Z,1004.69
2023-11-26T06:16:34.069Z,1004.69
2023-11-26T06:17:34.973Z,1004.70
2023-11-26T06:18:35.861Z,1004.70
2023-11-26T06:19:36.737Z,1004.71
2023-11-26T06:20:37.579Z,1004.71
2023-11-26T06:21:38.522Z,1004.68
2023-11-26T06:22:39.396Z,1004.65
2023-11-26T06:23:40.321Z,1004.68
2023-11-26T06:24:41.213Z,1004.69
2023-11-26T06:25:42.103Z,1004.68
2023-11-26T06:26:42.979Z,1004.65
2023-11-26T06:27:43.934Z,1004.63
2023-11-26T06:28:44.805Z,1004.63
2023-11-26T06:29:45.687Z,1004.64
2023-11-26T06:30:46.574Z,1004.63
2023-11-26T06:31:47.456Z,1004.62
2023-11-26T06:32:48.428Z,1004.63
2023-11-26T06:33:49.378Z,1004.65
2023-11-26T06:34:50.265Z,1004.67
2023-11-26T06:35:51.155Z,1004.70
2023-11-26T06:36:52.030Z,1004.68
2023-11-26T06:37:52.910Z,1004.64
2023-11-26T06:38:53.973Z,1004.62
2023-11-26T06:39:54.357Z,1004.60
2023-11-26T06:40:55.235Z,1004.57
2023-11-26T06:41:56.120Z,1004.60
2023-11-26T06:42:57.017Z,1004.59
2023-11-26T06:43:57.905Z,1004.57
2023-11-26T06:44:58.801Z,1004.59
2023-11-26T06:45:59.878Z,1004.57
2023-11-26T06:47:00.276Z,1004.59
2023-11-26T06:48:01.141Z,1004.59
2023-11-26T06:49:02.003Z,1004.57
2023-11-26T06:50:02.908Z,1004.56
2023-11-26T06:51:03.754Z,1004.57
2023-11-26T06:52:04.641Z,1004.58
2023-11-26T06:53:05.542Z,1004.57
2023-11-26T06:54:06.403Z,1004.57
2023-11-26T06:55:07.290Z,1004.58
2023-11-26T06:56:08.174Z,1004.58
2023-11-26T06:57:09.096Z,1004.58
2023-11-26T06:58:10.018Z,1004.57
2023-11-26T06:59:10.955Z,1004.55
2023-11-26T07:00:11.929Z,1004.55
2023-11-26T07:01:12.814Z,1004.59
2023-11-26T07:02:13.855Z,1004.61
2023-11-26T07:03:14.326Z,1004.61
2023-11-26T07:04:14.861Z,1004.62
2023-11-26T07:05:15.363Z,1004.63
2023-11-26T07:06:16.288Z,1004.62
2023-11-26T07:07:17.350Z,1004.62
2023-11-26T07:08:17.691Z,1004.63
2023-11-26T07:09:18.568Z,1004.62
2023-11-26T07:10:19.461Z,1004.62
2023-11-26T07:11:20.314Z,1004.60
2023-11-26T07:12:21.240Z,1004.61
2023-11-26T07:13:22.071Z,1004.60
2023-11-26T07:14:22.976Z,1004.61
2023-11-26T07:15:23.856Z,1004.61
2023-11-26T07:16:24.740Z,1004.62
2023-11-26T07:17:25.661Z,1004.60
2023-11-26T07:18:26.584Z,1004.62
2023-11-26T07:19:27.493Z,1004.64
2023-11-26T07:20:28.389Z,1004.61
2023-11-26T07:21:29.273Z,1004.61
2023-11-26T07:22:30.126Z,1004.63
2023-11-26T07:23:31.040Z,1004.64
2023-11-26T07:24:31.928Z,1004.64
2023-11-26T07:25:32.817Z,1004.68
2023-11-26T07:26:33.770Z,1004.70
2023-11-26T07:27:34.702Z,1004.71
2023-11-26T07:28:35.583Z,1004.69
2023-11-26T07:29:36.453Z,1004.67
2023-11-26T07:30:37.400Z,1004.64
2023-11-26T07:31:38.335Z,1004.65
2023-11-26T07:32:39.198Z,1004.66
2023-11-26T07:33:40.154Z,1004.67
2023-11-26T07:34:41.033Z,1004.63
2023-11-26T07:35:41.950Z,1004.65
2023-11-26T07:36:42.833Z,1004.64
2023-11-26T07:37:43.703Z,1004.64
2023-11-26T07:38:44.569Z,1004.65
2023-11-26T07:39:45.495Z,1004.65
2023-11-26T07:40:46.398Z,1004.67
2023-11-26T07:41:47.286Z,1004.66
2023-11-26T07:42:48.185Z,1004.66
2023-11-26T07:43:49.034Z,1004.67
2023-11-26T07:44:49.909Z,1004.67
2023-11-26T07:45:50.850Z,1004.68
2023-11-26T07:46:51.781Z,1004.67
2023-11-26T07:47:52.668Z,1004.66
2023-11-26T07:48:53.589Z,1004.67
2023-11-26T07:49:54.474Z,1004.69
2023-11-26T07:50:55.414Z,1004.70
2023-11-26T07:51:56.325Z,1004.68
2023-11-26T07:52:57.198Z,1004.67
2023-11-26T07:53:58.121Z,1004.65
2023-11-26T07:54:58.999Z,1004.63
2023-11-26T07:55:59.848Z,1004.62
2023-11-26T07:57:00.731Z,1004.60
2023-11-26T07:58:01.620Z,1004.58
2023-11-26T07:59:02.498Z,1004.56
2023-11-26T08:00:03.383Z,1004.52
2023-11-26T08:01:04.517Z,1004.51
2023-11-26T08:02:04.889Z,1004.51
2023-11-26T08:03:05.798Z,1004.52
2023-11-26T08:04:06.835Z,1004.52
2023-11-26T08:05:07.384Z,1004.52
2023-11-26T08:06:07.799Z,1004.52
2023-11-26T08:07:08.714Z,1004.51
2023-11-26T08:08:09.625Z,1004.54
2023-11-26T08:09:10.699Z,1004.55
2023-11-26T08:10:11.213Z,1004.53
2023-11-26T08:11:11.574Z,1004.52
2023-11-26T08:12:12.530Z,1004.51
2023-11-26T08:13:13.439Z,1004.50
2023-11-26T08:14:14.349Z,1004.49
2023-11-26T08:15:15.227Z,1004.47
2023-11-26T08:16:16.161Z,1004.48
2023-11-26T08:17:17.002Z,1004.51
2023-11-26T08:18:17.931Z,1004.55
2023-11-26T08:19:18.824Z,1004.57
2023-11-26T08:20:19.695Z,1004.60
2023-11-26T08:21:20.607Z,1004.61
2023-11-26T08:22:21.484Z,1004.62
2023-11-26T08:23:22.391Z,1004.60
2023-11-26T08:24:23.320Z,1004.60
2023-11-26T08:25:24.190Z,1004.63
2023-11-26T08:26:25.075Z,1004.64
2023-11-26T08:27:25.960Z,1004.64
2023-11-26T08:28:27.021Z,1004.61
2023-11-26T08:29:27.420Z,1004.61
2023-11-26T08:30:28.303Z,1004.61
2023-11-26T08:31:29.402Z,1004.59
2023-11-26T08:32:30.084Z,1004.59
2023-11-26T08:33:32.244Z,1004.58
2023-11-26T08:34:31.852Z,1004.58
2023-11-26T08:35:32.306Z,1004.56
2023-11-26T08:36:33.185Z,1004.54
2023-11-26T08:37:34.056Z,1004.54
2023-11-26T08:38:35.074Z,1004.53
2023-11-26T08:39:36.075Z,1004.52
2023-11-26T08:40:36.960Z,1004.50
2023-11-26T08:41:37.856Z,1004.49
2023-11-26T08:42:38.813Z,1004.46
2023-11-26T08:43:39.727Z,1004.44
2023-11-26T08:44:40.623Z,1004.45
2023-11-26T08:45:41.628Z,1004.45
2023-11-26T08:46:42.554Z,1004.45
2023-11-26T08:47:43.465Z,1004.45
2023-11-26T08:48:44.417Z,1004.44
2023-11-26T08:49:45.392Z,1004.44
2023-11-26T08:50:47.277Z,1004.44
2023-11-26T08:51:47.207Z,1004.46
2023-11-26T08:52:48.118Z,1004.47
2023-11-26T08:53:49.266Z,1004.45
2023-11-26T08:54:49.766Z,1004.45
2023-11-26T08:55:50.299Z,1004.46
2023-11-26T08:56:51.786Z,1004.46
2023-11-26T08:57:51.372Z,1004.47
2023-11-26T08:58:51.869Z,1004.47
2023-11-26T08:59:52.331Z,1004.46
2023-11-26T09:00:53.534Z,1004.48
2023-11-26T09:06:53.145Z,1004.48
2023-11-26T09:07:54.169Z,1004.47
2023-11-26T09:08:54.605Z,1004.48
2023-11-26T09:09:55.606Z,1004.45
2023-11-26T09:10:56.553Z,1004.45
2023-11-26T09:11:57.381Z,1004.42
2023-11-26T09:12:58.350Z,1004.44
2023-11-26T09:13:59.249Z,1004.44
2023-11-26T09:15:00.163Z,1004.44
2023-11-26T09:16:01.028Z,1004.42
2023-11-26T09:17:02.003Z,1004.41
2023-11-26T09:18:03.151Z,1004.38
2023-11-26T09:19:03.543Z,1004.34
2023-11-26T09:20:04.434Z,1004.31
2023-11-26T09:21:05.345Z,1004.28
2023-11-26T09:22:06.230Z,1004.28
2023-11-26T09:23:07.086Z,1004.29
2023-11-26T09:24:08.025Z,1004.31
2023-11-26T09:25:08.923Z,1004.33
2023-11-26T09:26:09.841Z,1004.33
2023-11-26T09:27:10.725Z,1004.33
2023-11-26T09:28:11.629Z,1004.35
2023-11-26T09:29:15.810Z,1004.37
2023-11-26T09:30:14.431Z,1004.37
2023-11-26T09:31:14.915Z,1004.37
2023-11-26T09:32:15.028Z,1004.37
2023-11-26T09:33:15.845Z,1004.38
2023-11-26T09:34:16.412Z,1004.39
2023-11-26T09:35:17.367Z,1004.39
2023-11-26T09:36:18.339Z,1004.41
2023-11-26T09:37:19.200Z,1004.42
2023-11-26T09:38:19.859Z,1004.44
2023-11-26T09:39:20.488Z,1004.42
2023-11-26T09:40:20.888Z,1004.41
2023-11-26T09:41:21.987Z,1004.40
2023-11-26T09:42:22.408Z,1004.42
2023-11-26T09:43:23.367Z,1004.41
2023-11-26T09:44:24.289Z,1004.40
2023-11-26T09:45:25.342Z,1004.40
2023-11-26T09:46:25.829Z,1004.40
2023-11-26T09:47:26.741Z,1004.39
2023-11-26T09:48:27.871Z,1004.37
2023-11-26T09:49:28.301Z,1004.36
2023-11-26T09:50:29.185Z,1004.34
2023-11-26T09:51:30.108Z,1004.33
2023-11-26T09:52:31.006Z,1004.33
2023-11-26T09:53:31.902Z,1004.33
2023-11-26T09:54:33.040Z,1004.31
2023-11-26T09:55:33.890Z,1004.31
2023-11-26T09:56:34.322Z,1004.30
2023-11-26T09:57:35.182Z,1004.30
2023-11-26T09:58:36.048Z,1004.31
2023-11-26T09:59:36.964Z,1004.29
2023-11-26T10:00:38.063Z,1004.28
2023-11-26T10:01:38.429Z,1004.25
2023-11-26T10:02:39.460Z,1004.26
2023-11-26T10:03:40.034Z,1004.24
2023-11-26T10:04:40.452Z,1004.22
2023-11-26T10:05:41.408Z,1004.19
2023-11-26T10:06:42.354Z,1004.17
2023-11-26T10:07:43.301Z,1004.17
2023-11-26T10:08:44.196Z,1004.18
2023-11-26T10:09:45.143Z,1004.20
2023-11-26T10:10:46.048Z,1004.21
2023-11-26T10:11:46.918Z,1004.20
2023-11-26T10:12:48.076Z,1004.19
2023-11-26T10:13:48.514Z,1004.21
2023-11-26T10:14:49.409Z,1004.22
2023-11-26T10:15:50.346Z,1004.22
2023-11-26T10:16:51.374Z,1004.21
2023-11-26T10:17:51.753Z,1004.22
2023-11-26T10:18:52.636Z,1004.23
2023-11-26T10:19:53.524Z,1004.23
2023-11-26T10:20:54.442Z,1004.24
2023-11-26T10:21:55.390Z,1004.24
2023-11-26T10:22:56.287Z,1004.25
2023-11-26T10:23:57.145Z,1004.26
2023-11-26T10:24:58.332Z,1004.24
2023-11-26T10:25:59.309Z,1004.24
2023-11-26T10:26:59.686Z,1004.25
2023-11-26T10:28:00.565Z,1004.26
2023-11-26T10:29:01.633Z,1004.23
2023-11-26T10:30:02.197Z,1004.23
2023-11-26T10:31:02.727Z,1004.21
2023-11-26T10:32:03.583Z,1004.19
2023-11-26T10:33:04.577Z,1004.19
2023-11-26T10:34:05.148Z,1004.18
2023-11-26T10:37:03.701Z,1004.17
2023-11-26T10:38:04.304Z,1004.17
2023-11-26T10:39:04.956Z,1004.15
2023-11-26T10:40:05.520Z,1004.14
2023-11-26T10:41:05.980Z,1004.14
2023-11-26T10:42:06.882Z,1004.17
2023-11-26T10:43:07.900Z,1004.21
2023-11-26T10:44:08.433Z,1004.22
2023-11-26T10:45:09.304Z,1004.20
2023-11-26T10:46:10.281Z,1004.21
2023-11-26T10:47:11.407Z,1004.21
2023-11-26T10:50:07.309Z,1004.17
2023-11-26T10:51:13.523Z,1004.16
2023-11-26T10:52:09.636Z,1004.16
2023-11-26T10:53:09.266Z,1004.17
2023-11-26T10:54:09.671Z,1004.16
2023-11-26T10:55:10.664Z,1004.16
2023-11-26T10:56:12.536Z,1004.15
2023-11-26T10:57:12.454Z,1004.15
2023-11-26T10:58:13.404Z,1004.15
2023-11-26T10:59:14.321Z,1004.15
2023-11-26T11:00:15.299Z,1004.14
2023-11-26T11:01:16.275Z,1004.17
2023-11-26T11:02:16.800Z,1004.17
2023-11-26T11:03:17.351Z,1004.17
2023-11-26T11:04:17.802Z,1004.12
2023-11-26T11:05:18.695Z,1004.12
2023-11-26T11:06:19.568Z,1004.10
2023-11-26T11:07:20.552Z,1004.08
2023-11-26T11:08:21.438Z,1004.06
2023-11-26T11:09:22.353Z,1004.07
2023-11-26T11:10:23.208Z,1004.03
2023-11-26T11:11:24.134Z,1004.00
2023-11-26T11:12:25.118Z,1003.98
2023-11-26T11:13:25.993Z,1003.95
2023-11-26T11:16:25.068Z,1003.92
2023-11-26T11:17:26.175Z,1003.94
2023-11-26T11:18:26.818Z,1003.95
2023-11-26T11:19:28.244Z,1003.94
2023-11-26T11:24:20.881Z,1003.89
2023-11-26T11:25:21.802Z,1003.85
2023-11-26T11:26:21.944Z,1003.86
2023-11-26T11:31:25.431Z,1003.89
2023-11-26T11:32:26.071Z,1003.89
2023-11-26T11:35:04.922Z,1003.94
2023-11-26T12:07:52.989Z,1003.94
2023-11-26T12:21:54.459Z,1003.95
2023-11-26T12:22:54.995Z,1003.94
2023-11-26T12:26:36.125Z,1003.93
2023-11-26T12:27:36.695Z,1003.92
2023-11-26T12:28:37.680Z,1003.92
2023-11-26T12:29:38.233Z,1003.91
2023-11-26T12:30:39.447Z,1003.93
2023-11-26T12:31:39.947Z,1003.93
2023-11-26T12:32:41.106Z,1003.92
2023-11-26T12:33:41.548Z,1003.91
2023-11-26T12:34:42.402Z,1003.90
2023-11-26T12:35:43.349Z,1003.89
2023-11-26T12:36:44.209Z,1003.87
2023-11-26T12:37:45.094Z,1003.85
2023-11-26T12:38:45.977Z,1003.84
2023-11-26T12:39:46.903Z,1003.82
2023-11-26T12:40:47.891Z,1003.82
2023-11-26T12:41:48.419Z,1003.82
2023-11-26T12:42:48.981Z,1003.79
2023-11-26T12:43:50.184Z,1003.79
2023-11-26T12:44:50.632Z,1003.78
2023-11-26T12:48:06.679Z,1003.79
2023-11-26T12:49:05.834Z,1003.78
2023-11-26T12:52:16.886Z,1003.83
2023-11-26T12:53:16.020Z,1003.83
2023-11-26T12:54:16.453Z,1003.85
2023-11-26T12:55:17.188Z,1003.84
2023-11-26T12:56:17.626Z,1003.83
2023-11-26T12:57:18.553Z,1003.82
2023-11-26T12:58:19.671Z,1003.81
2023-11-26T12:59:24.161Z,1003.80
2023-11-26T13:00:21.706Z,1003.77
2023-11-26T13:01:21.915Z,1003.75
2023-11-26T13:02:22.556Z,1003.74
2023-11-26T13:03:23.130Z,1003.71
2023-11-26T13:04:23.584Z,1003.73
2023-11-26T13:05:24.507Z,1003.74
2023-11-26T13:06:25.417Z,1003.74
2023-11-26T13:07:26.277Z,1003.75
2023-11-26T13:08:27.386Z,1003.73
2023-11-26T13:09:27.819Z,1003.73
2023-11-26T13:10:28.778Z,1003.72
2023-11-26T13:11:29.346Z,1003.73
2023-11-26T13:12:29.783Z,1003.74
2023-11-26T13:13:30.827Z,1003.74
2023-11-26T13:14:31.437Z,1003.74
2023-11-26T13:15:31.802Z,1003.74
2023-11-26T13:16:32.645Z,1003.73
2023-11-26T13:17:33.652Z,1003.71
2023-11-26T13:18:34.251Z,1003.69
2023-11-26T13:19:34.721Z,1003.69
2023-11-26T13:20:35.626Z,1003.69
2023-11-26T13:21:36.514Z,1003.69
2023-11-26T13:22:37.420Z,1003.68
2023-11-26T13:23:38.298Z,1003.65
2023-11-26T13:24:39.210Z,1003.65
2023-11-26T13:25:40.048Z,1003.64
2023-11-26T13:26:40.931Z,1003.63
2023-11-26T13:27:41.878Z,1003.65